Aérodrome :
LOGIN :

S'inscrire | Disclaimer

   EN    FR    IT 

 










Légende :    VFR   VFR Marginal   IFR   IFR Intensif   IFR Très Intensif
Visi : 
Plafond : 
>= 8 km
>= 3000ft
5 à 8 km
1000 à 3000 ft
1500m à 5 km
500 à 1000 ft
800 à 1500m
200 à 500 ft
< 800m
< 200 ft
Symboles :   Orages  Brouillard  Fortes neiges  Fortes précipitations  Vent > 20 kt
SIGMETs :   Divers  Orages  Givrage  Turbulence  Onde Orograph.  Cendres Volcan.







- Altitude de l'aérodrome : 63 ft
- Code IATA : BZM


EHWO - Woensdrecht Airbase

DERNIER METAR :
  • 160908Z AUTO 24009KT 190V270 9999 FEW014 BKN016 BKN021 18/13 Q1019 WHT

METARs EXPIRÉS :
  • 160858Z AUTO 24009KT 200V260 9999 SCT014 BKN016 OVC021 17/13 Q1019 GRN
  • 160847Z AUTO 24011KT 9999 FEW014 OVC016 16/13 Q1019 WHT
  • 160825Z AUTO 23011KT 190V260 9999 SCT015 BKN018 OVC022 16/13 Q1019 WHT
  • 160807Z AUTO 23010KT 180V270 9999 OVC015 17/13 Q1018 WHT
  • 160802Z AUTO 23010KT 180V250 9999 BKN014 BKN016 BKN040 17/13 Q1018 GRN
  • 160755Z AUTO 22010KT 190V260 9999 SCT013 SCT015 17/13 Q1018 GRN
  • 160733Z AUTO 23010KT 200V260 9999 SCT014 BKN047 OVC085 17/13 Q1018 GRN
  • 160725Z AUTO 23010KT 190V260 9999 BKN050 OVC085 17/13 Q1018 BLU
  • 160655Z AUTO 23009KT 9999 OVC084 16/13 Q1018 BLU
  • 160625Z AUTO 22009KT 9999 NCD 15/12 Q1018 BLU

Prévision TAF périmée.
Pas de NOTAMs connus pour ce terrain.



MET'MAP, la Météo Aéronautique d'un coup d'oeil ! - Copyright ORBIFLY Décembre 2007 - Disclaimer

ORBIFLY MET'MAP TEAM :

Programmation & Développement : Alexandra Zaïnal
Conception & Développement : Baudouin d'Aumeries
Co-Programmation & Développement : Marc-Olivier Méhu
Soutien technique & logistique : Manuel Goepfert

Contact : metmap@orbifly.com




SOURCES & CREDITS :

   NOAA